Time;durP1;ratioP1;P1;durP2;ratioP2;P2;SDS_P1;SDS_P2;PMS_P1;PMS_P2;Temp;Humidity;BMP_temperature;BMP_pressure;BME280_temperature;BME280_humidity;BME280_pressure;Samples;Min_cycle;Max_cycle;Signal;HPM_P1;HPM_P2
2024/01/25 00:00:30;;;;;;;16.60;7.97;;;;;;;-9.90;93.53;101248.84;10255816;28;20043;-70
2024/01/25 00:05:31;;;;;;;14.45;6.95;;;;;;;-9.63;93.78;101264.84;10256573;28;20407;-70
2024/01/25 00:10:31;;;;;;;16.45;7.28;;;;;;;-9.54;93.35;101243.28;10256406;28;20047;-70
2024/01/25 00:15:32;;;;;;;16.92;7.72;;;;;;;-9.77;93.04;101203.28;10256133;28;20043;-70
2024/01/25 00:20:33;;;;;;;13.93;7.28;;;;;;;-9.91;92.81;101172.56;10255198;28;20043;-70
2024/01/25 00:25:34;;;;;;;15.10;7.50;;;;;;;-9.58;92.68;101214.16;10255081;28;20579;-70
2024/01/25 00:30:34;;;;;;;12.43;5.97;;;;;;;-9.65;92.67;101203.13;10270402;28;20412;-70
2024/01/25 00:35:35;;;;;;;22.48;7.75;;;;;;;-9.65;92.82;101200.56;10255639;28;20044;-70
2024/01/25 00:40:37;;;;;;;15.10;6.70;;;;;;;-9.71;92.63;101194.63;10254162;28;20047;-70
2024/01/25 00:45:38;;;;;;;13.65;6.40;;;;;;;-9.59;92.56;101201.34;10255252;28;20059;-70
2024/01/25 00:50:39;;;;;;;15.43;7.80;;;;;;;-9.58;92.35;101187.59;10255386;28;20043;-70
2024/01/25 00:55:41;;;;;;;17.92;8.18;;;;;;;-9.92;92.34;101134.91;10254245;28;20043;-70
2024/01/25 01:00:42;;;;;;;16.13;6.93;;;;;;;-9.58;93.10;101177.31;10254179;28;20078;-70
2024/01/25 01:05:43;;;;;;;14.70;7.13;;;;;;;-9.66;92.66;101144.84;10254779;28;20059;-70
2024/01/25 01:10:43;;;;;;;17.65;8.13;;;;;;;-9.81;92.49;101091.06;10268763;28;20046;-70
2024/01/25 01:15:44;;;;;;;16.65;8.20;;;;;;;-9.39;92.70;101141.91;10254007;28;20496;-70
2024/01/25 01:20:45;;;;;;;15.07;7.65;;;;;;;-9.35;92.82;101131.56;10253077;28;20043;-70
2024/01/25 01:25:46;;;;;;;18.85;9.57;;;;;;;-9.49;93.11;101120.59;10252781;28;20039;-70
2024/01/25 01:30:46;;;;;;;17.48;8.77;;;;;;;-9.57;93.52;101132.72;10252351;28;20065;-70
2024/01/25 01:35:47;;;;;;;23.92;11.18;;;;;;;-9.54;94.65;101135.25;10252647;28;20047;-70
2024/01/25 01:40:48;;;;;;;18.58;9.35;;;;;;;-9.66;94.59;101097.72;10251396;28;20522;-70
2024/01/25 01:45:49;;;;;;;21.48;10.07;;;;;;;-9.40;94.52;101122.19;10244448;28;20065;-70
2024/01/25 01:50:50;;;;;;;20.98;10.32;;;;;;;-9.82;94.68;101044.81;10251992;28;20054;-70
2024/01/25 01:55:51;;;;;;;20.10;9.82;;;;;;;-9.17;94.76;101127.00;10252384;28;20393;-70
2024/01/25 02:00:54;;;;;;;35.13;10.70;;;;;;;-9.80;94.63;101035.34;10251705;28;20519;-70
2024/01/25 02:05:55;;;;;;;21.55;9.75;;;;;;;-9.19;94.91;101115.00;10252485;28;20503;-70
2024/01/25 02:10:55;;;;;;;18.42;9.00;;;;;;;-9.11;95.29;101117.47;10250490;28;20036;-70
2024/01/25 02:15:56;;;;;;;16.70;9.43;;;;;;;-9.07;94.84;101110.53;10251133;29;20061;-69
2024/01/25 02:20:57;;;;;;;21.80;9.77;;;;;;;-9.10;94.83;101124.28;10252115;29;20042;-69
2024/01/25 02:25:58;;;;;;;20.15;9.35;;;;;;;-9.20;95.21;101110.72;10250475;29;20046;-69
2024/01/25 02:30:59;;;;;;;20.88;10.15;;;;;;;-9.15;94.99;101110.66;10249552;28;20043;-71
2024/01/25 02:36:00;;;;;;;22.00;10.23;;;;;;;-9.16;95.70;101103.81;10244989;28;20376;-70
2024/01/25 02:41:01;;;;;;;24.40;10.52;;;;;;;-9.16;95.58;101088.34;10252371;28;20055;-70
2024/01/25 02:46:02;;;;;;;24.15;10.02;;;;;;;-9.08;95.84;101107.13;10260173;28;20450;-70
2024/01/25 02:51:03;;;;;;;24.00;10.75;;;;;;;-9.07;95.75;101098.50;10259283;28;20051;-70
2024/01/25 02:56:04;;;;;;;25.65;10.77;;;;;;;-9.38;95.70;101030.44;10258482;28;20047;-70
2024/01/25 03:01:04;;;;;;;23.25;10.10;;;;;;;-8.93;96.37;101079.41;10258869;28;20074;-70
2024/01/25 03:06:06;;;;;;;23.80;10.20;;;;;;;-8.93;96.19;101077.69;10258456;28;20066;-71
2024/01/25 03:11:07;;;;;;;20.02;9.25;;;;;;;-8.96;96.23;101077.75;10249078;28;20051;-73
2024/01/25 03:16:08;;;;;;;18.77;8.70;;;;;;;-9.02;95.90;101057.25;10226343;28;20043;-69
2024/01/25 03:21:08;;;;;;;23.40;11.48;;;;;;;-9.04;96.15;101064.16;10242839;29;20134;-71
2024/01/25 03:26:09;;;;;;;24.45;10.70;;;;;;;-9.20;97.02;101066.13;10243757;28;20150;-70
2024/01/25 03:31:10;;;;;;;22.52;9.75;;;;;;;-9.25;97.49;101053.34;10218622;29;20047;-71
2024/01/25 03:36:15;;;;;;;25.33;9.48;;;;;;;-9.04;97.77;101059.84;10217400;29;20066;-72
2024/01/25 03:41:16;;;;;;;18.58;8.57;;;;;;;-8.91;98.21;101062.19;10216999;29;20047;-72
2024/01/25 03:46:16;;;;;;;20.77;8.93;;;;;;;-9.12;97.61;101014.53;10217837;29;20070;-71
2024/01/25 03:51:17;;;;;;;21.05;9.13;;;;;;;-8.90;97.99;101046.75;10216824;29;20535;-70
2024/01/25 03:56:18;;;;;;;20.50;9.30;;;;;;;-8.98;97.56;101058.88;10216572;29;20516;-72
2024/01/25 04:01:19;;;;;;;20.23;9.63;;;;;;;-9.03;97.75;101053.84;10218953;29;20044;-71
2024/01/25 04:06:19;;;;;;;25.92;9.30;;;;;;;-9.02;98.70;101050.38;10255968;28;20043;-72
2024/01/25 04:11:20;;;;;;;25.00;9.73;;;;;;;-8.99;98.58;101057.19;10257476;28;20066;-71
2024/01/25 04:16:21;;;;;;;21.05;8.98;;;;;;;-8.87;99.02;101046.69;10256097;28;20111;-72
2024/01/25 04:21:22;;;;;;;22.35;9.90;;;;;;;-8.88;98.83;101049.25;10255242;28;20039;-72
2024/01/25 04:26:23;;;;;;;22.92;9.35;;;;;;;-8.83;99.03;101055.19;10254533;28;20460;-72
2024/01/25 04:31:24;;;;;;;23.90;9.18;;;;;;;-8.81;99.28;101046.56;10255660;28;20491;-70
2024/01/25 04:36:24;;;;;;;34.28;10.20;;;;;;;-8.98;99.42;101015.13;10241298;28;20047;-69
2024/01/25 04:41:25;;;;;;;25.00;9.90;;;;;;;-8.79;99.53;101024.22;10215310;29;20505;-70
2024/01/25 04:46:26;;;;;;;22.15;8.63;;;;;;;-8.68;99.70;101018.84;10234648;29;20055;-69
2024/01/25 04:51:27;;;;;;;19.52;8.95;;;;;;;-8.66;99.47;101009.38;10253656;28;20419;-70
2024/01/25 04:56:28;;;;;;;24.85;9.80;;;;;;;-8.70;99.19;101004.31;10253510;28;20058;-69
2024/01/25 05:01:29;;;;;;;27.38;11.40;;;;;;;-8.95;98.64;100961.00;10253796;28;20051;-70
2024/01/25 05:06:30;;;;;;;23.85;10.90;;;;;;;-8.47;98.87;101004.69;10253503;28;20102;-69
2024/01/25 05:11:31;;;;;;;26.25;11.20;;;;;;;-8.34;97.87;100997.53;10254155;28;20086;-69
2024/01/25 05:16:32;;;;;;;24.05;11.60;;;;;;;-8.53;97.39;100954.13;10254666;28;20074;-69
2024/01/25 05:21:32;;;;;;;18.60;9.82;;;;;;;-8.22;96.42;100944.88;10253449;28;20039;-70
2024/01/25 05:26:33;;;;;;;22.98;10.90;;;;;;;-7.73;95.55;100988.44;10253585;28;20415;-70
2024/01/25 05:31:35;;;;;;;22.30;9.40;;;;;;;-7.82;93.56;100992.06;10252767;28;20043;-70
2024/01/25 05:36:35;;;;;;;20.40;9.73;;;;;;;-8.11;93.01;100942.91;10253499;28;20047;-70
2024/01/25 05:41:36;;;;;;;17.77;9.27;;;;;;;-7.67;92.44;100995.19;10252121;28;20448;-70
2024/01/25 05:46:38;;;;;;;16.20;8.43;;;;;;;-7.53;91.68;100980.22;10253176;28;20054;-70
2024/01/25 05:51:39;;;;;;;21.00;8.95;;;;;;;-7.40;91.27;100968.69;10252656;28;20567;-69
2024/01/25 05:56:39;;;;;;;16.83;8.43;;;;;;;-7.55;90.54;100920.06;10252468;28;20125;-70
2024/01/25 06:01:40;;;;;;;15.88;8.75;;;;;;;-7.50;90.20;100919.94;10252890;28;20043;-70
2024/01/25 06:06:41;;;;;;;18.20;8.93;;;;;;;-6.95;89.69;100957.19;10251603;28;20039;-70
2024/01/25 06:11:42;;;;;;;14.50;8.18;;;;;;;-6.86;88.93;100958.69;10251592;28;20097;-70
2024/01/25 06:16:42;;;;;;;16.15;8.85;;;;;;;-6.87;89.17;100957.84;10251727;28;20050;-70
2024/01/25 06:21:43;;;;;;;16.27;9.10;;;;;;;-6.91;89.04;100926.09;10252175;28;20126;-69
2024/01/25 06:26:44;;;;;;;17.88;9.10;;;;;;;-6.60;88.98;100945.03;10251746;28;20062;-70
2024/01/25 06:31:45;;;;;;;17.83;9.55;;;;;;;-6.44;88.63;100923.84;10251245;28;20500;-70
2024/01/25 06:36:45;;;;;;;17.92;9.50;;;;;;;-6.26;88.15;100914.69;10250977;28;20393;-70
2024/01/25 06:41:46;;;;;;;17.58;9.63;;;;;;;-5.98;87.93;100919.84;10251155;28;20567;-69
2024/01/25 06:46:47;;;;;;;16.42;8.18;;;;;;;-5.71;87.93;100922.41;10252257;28;20059;-70
2024/01/25 06:51:48;;;;;;;12.90;7.18;;;;;;;-5.41;87.53;100901.59;10250828;28;20042;-70
2024/01/25 06:56:51;;;;;;;16.63;8.25;;;;;;;-5.48;87.36;100900.91;10251277;28;20110;-70
2024/01/25 07:01:51;;;;;;;14.43;7.93;;;;;;;-5.56;87.66;100875.31;10250906;28;20476;-70
2024/01/25 07:06:52;;;;;;;16.33;9.68;;;;;;;-5.62;87.92;100852.22;10250940;28;20039;-70
2024/01/25 07:11:53;;;;;;;20.77;9.95;;;;;;;-5.55;87.77;100883.91;10250390;28;20047;-70
2024/01/25 07:16:54;;;;;;;18.58;10.00;;;;;;;-5.55;88.00;100884.75;10250330;28;20039;-70
2024/01/25 07:21:54;;;;;;;16.58;8.43;;;;;;;-5.31;88.40;100884.81;10250368;28;20047;-70
2024/01/25 07:26:55;;;;;;;19.13;9.45;;;;;;;-5.17;88.15;100886.94;10252811;28;20431;-70
2024/01/25 07:31:56;;;;;;;19.50;10.52;;;;;;;-5.06;87.34;100872.66;10257299;28;20039;-70
2024/01/25 07:36:56;;;;;;;17.55;9.52;;;;;;;-5.15;87.09;100866.97;10257674;28;20039;-70
2024/01/25 07:41:57;;;;;;;18.02;9.88;;;;;;;-5.23;86.99;100835.34;10257553;28;20109;-70
2024/01/25 07:46:58;;;;;;;20.98;9.63;;;;;;;-5.06;86.92;100864.06;10258131;28;20062;-70
2024/01/25 07:51:58;;;;;;;18.27;9.85;;;;;;;-4.82;86.95;100847.63;10257199;28;20090;-70
2024/01/25 07:56:59;;;;;;;19.55;9.52;;;;;;;-4.65;85.97;100846.97;10256365;28;20129;-70
2024/01/25 08:02:00;;;;;;;17.30;10.52;;;;;;;-4.81;85.52;100819.94;10256789;28;20047;-70
2024/01/25 08:07:01;;;;;;;20.58;11.13;;;;;;;-4.36;86.18;100826.84;10257176;28;20498;-70
2024/01/25 08:12:02;;;;;;;21.02;10.73;;;;;;;-4.48;85.08;100775.47;10256387;28;20042;-70
2024/01/25 08:17:03;;;;;;;18.02;9.90;;;;;;;-3.78;84.99;100811.44;10256303;28;20422;-70
2024/01/25 08:22:04;;;;;;;19.50;10.75;;;;;;;-3.61;84.26;100781.34;10256015;28;20055;-70
2024/01/25 08:27:04;;;;;;;16.17;9.82;;;;;;;-3.56;83.42;100780.22;10255735;28;20044;-70
2024/01/25 08:32:05;;;;;;;18.80;11.20;;;;;;;-3.23;83.65;100779.63;10255040;28;20550;-70
2024/01/25 08:37:06;;;;;;;18.17;9.95;;;;;;;-3.60;82.28;100733.69;10254205;28;20043;-70
2024/01/25 08:42:06;;;;;;;17.50;9.65;;;;;;;-3.39;82.73;100766.47;10254374;28;20066;-70
2024/01/25 08:47:07;;;;;;;17.75;9.38;;;;;;;-3.12;81.45;100766.97;10254843;28;20046;-70
2024/01/25 08:52:08;;;;;;;17.42;10.13;;;;;;;-2.97;81.29;100757.63;10254875;28;20044;-70
2024/01/25 08:57:09;;;;;;;18.65;11.73;;;;;;;-3.38;81.50;100700.66;10254080;28;20039;-70
2024/01/25 09:02:10;;;;;;;19.48;10.75;;;;;;;-3.17;81.35;100706.59;10254472;28;20047;-70
2024/01/25 09:07:11;;;;;;;16.60;10.95;;;;;;;-2.84;81.94;100730.16;10254475;28;20051;-70
2024/01/25 09:12:12;;;;;;;28.20;12.05;;;;;;;-2.97;81.67;100679.66;10253650;28;20091;-70
2024/01/25 09:17:14;;;;;;;21.30;11.05;;;;;;;-2.49;81.90;100706.78;10254007;28;20125;-70
2024/01/25 09:22:16;;;;;;;17.65;10.73;;;;;;;-2.66;81.26;100699.84;10253177;28;20562;-70
2024/01/25 09:27:17;;;;;;;18.77;10.40;;;;;;;-2.90;81.46;100634.28;10253606;28;20103;-70
2024/01/25 09:32:20;;;;;;;16.92;8.25;;;;;;;-2.62;80.92;100679.72;10254137;28;20121;-70
2024/01/25 09:37:23;;;;;;;15.30;8.32;;;;;;;-2.96;81.51;100618.97;10253149;28;20504;-70
2024/01/25 09:42:23;;;;;;;17.42;8.00;;;;;;;-2.60;81.21;100654.47;10252137;28;20043;-70
2024/01/25 09:47:25;;;;;;;15.18;6.88;;;;;;;-2.23;80.89;100644.81;10252254;28;20106;-70
2024/01/25 09:52:27;;;;;;;14.63;8.57;;;;;;;-2.15;80.37;100632.25;10252470;28;20050;-69
2024/01/25 09:57:30;;;;;;;13.32;8.40;;;;;;;-2.16;79.70;100636.59;10253323;28;20492;-70
2024/01/25 10:02:31;;;;;;;18.60;7.90;;;;;;;-2.04;80.65;100618.66;10252260;28;20057;-70
2024/01/25 10:07:42;;;;;;;12.15;7.97;;;;;;;-2.20;80.37;100584.78;10252196;28;20045;-70
2024/01/25 10:12:43;;;;;;;12.32;7.22;;;;;;;-2.16;81.04;100613.16;10251514;28;20054;-69
2024/01/25 10:17:45;;;;;;;10.88;6.63;;;;;;;-2.34;80.89;100564.69;10252168;28;20395;-70
2024/01/25 10:22:45;;;;;;;10.95;5.93;;;;;;;-2.17;80.70;100595.03;10251707;28;20139;-70
2024/01/25 10:27:47;;;;;;;12.73;6.90;;;;;;;-2.13;81.18;100593.94;10251800;28;20126;-70
2024/01/25 10:32:49;;;;;;;12.57;7.50;;;;;;;-2.09;81.26;100595.47;10251735;28;20039;-70
2024/01/25 10:37:51;;;;;;;12.30;7.88;;;;;;;-1.95;81.25;100582.53;10251575;28;20062;-69
2024/01/25 10:42:52;;;;;;;11.57;6.75;;;;;;;-1.91;80.92;100576.28;10251037;28;20611;-70
2024/01/25 10:47:53;;;;;;;11.48;6.72;;;;;;;-1.88;81.24;100568.28;10250873;28;20043;-70
2024/01/25 10:52:54;;;;;;;12.55;7.63;;;;;;;-1.97;81.72;100563.59;10251855;28;20047;-70
2024/01/25 10:57:54;;;;;;;14.05;7.78;;;;;;;-2.02;81.47;100555.19;10250838;28;20040;-70
2024/01/25 11:02:55;;;;;;;11.75;7.32;;;;;;;-2.17;82.12;100523.00;10254482;28;20043;-70
2024/01/25 11:07:56;;;;;;;13.10;7.05;;;;;;;-1.87;82.12;100559.56;10260070;28;20562;-70
2024/01/25 11:12:59;;;;;;;13.38;7.55;;;;;;;-1.62;81.70;100553.81;10258700;28;20125;-70
2024/01/25 11:18:01;;;;;;;15.77;7.13;;;;;;;-1.65;82.07;100527.13;10258479;28;20050;-70
2024/01/25 11:23:06;;;;;;;12.90;6.65;;;;;;;-1.85;81.40;100515.22;10257459;28;20066;-70
2024/01/25 11:28:08;;;;;;;12.80;7.10;;;;;;;-1.80;81.57;100544.41;10258496;28;20045;-70
2024/01/25 11:33:09;;;;;;;11.30;7.38;;;;;;;-1.94;81.66;100529.56;10257205;28;20054;-70
2024/01/25 11:38:10;;;;;;;11.88;6.50;;;;;;;-1.75;81.22;100573.66;10257858;28;20130;-70
2024/01/25 11:43:12;;;;;;;12.63;6.68;;;;;;;-1.87;81.68;100569.13;10257305;28;20059;-69
2024/01/25 11:48:13;;;;;;;13.55;7.00;;;;;;;-1.92;81.87;100566.75;10257436;28;20049;-70
2024/01/25 11:53:14;;;;;;;12.45;6.80;;;;;;;-2.18;82.37;100518.72;10256686;28;20118;-70
2024/01/25 11:58:15;;;;;;;12.82;6.47;;;;;;;-1.98;82.37;100561.88;10253870;28;20475;-71
2024/01/25 12:03:16;;;;;;;10.55;6.05;;;;;;;-2.13;81.85;100557.50;10251360;29;20054;-70
2024/01/25 12:08:16;;;;;;;14.68;7.28;;;;;;;-2.71;82.30;100472.97;10252079;29;20098;-70
2024/01/25 12:13:17;;;;;;;15.10;6.85;;;;;;;-2.45;82.78;100541.84;10256245;28;20039;-69
2024/01/25 12:18:18;;;;;;;16.50;7.07;;;;;;;-3.07;83.12;100454.94;10256576;29;20074;-69
2024/01/25 12:23:20;;;;;;;22.38;8.68;;;;;;;-2.51;83.03;100516.16;10255891;28;20071;-69
2024/01/25 12:28:21;;;;;;;13.73;7.25;;;;;;;-2.34;82.81;100523.06;10256027;29;20047;-70
2024/01/25 12:33:22;;;;;;;17.80;9.30;;;;;;;-2.65;82.14;100503.03;10252685;29;20040;-68
2024/01/25 12:38:24;;;;;;;12.40;7.60;;;;;;;-2.93;83.01;100467.19;10252545;29;20043;-69
2024/01/25 12:43:24;;;;;;;12.68;7.28;;;;;;;-2.53;83.62;100525.78;10254788;28;20194;-69
2024/01/25 12:48:26;;;;;;;15.52;7.35;;;;;;;-2.56;83.23;100537.19;10249439;28;20065;-69
2024/01/25 12:53:27;;;;;;;16.83;7.88;;;;;;;-3.08;83.18;100497.41;10253095;29;20070;-69
2024/01/25 12:58:27;;;;;;;15.50;9.50;;;;;;;-3.71;83.42;100498.75;10253431;29;20070;-69
2024/01/25 13:03:28;;;;;;;15.55;7.13;;;;;;;-3.79;84.36;100552.78;10253555;28;20133;-70
2024/01/25 13:08:29;;;;;;;14.75;7.70;;;;;;;-4.05;84.71;100553.13;10254350;29;20428;-71
2024/01/25 13:13:30;;;;;;;12.55;7.50;;;;;;;-4.20;85.29;100537.34;10253461;29;20531;-70
2024/01/25 13:18:30;;;;;;;15.15;7.95;;;;;;;-4.34;85.61;100534.53;10254574;28;20082;-69
2024/01/25 13:23:31;;;;;;;14.15;7.85;;;;;;;-4.38;86.26;100535.59;10247121;28;20051;-69
2024/01/25 13:28:32;;;;;;;12.25;7.65;;;;;;;-4.45;86.34;100531.59;10252692;29;20043;-69
2024/01/25 13:33:32;;;;;;;14.43;7.60;;;;;;;-4.41;87.32;100514.97;10251815;28;20043;-69
2024/01/25 13:38:33;;;;;;;12.88;7.40;;;;;;;-4.51;86.78;100530.13;10252814;28;20043;-69
2024/01/25 13:43:34;;;;;;;16.10;8.52;;;;;;;-4.53;87.60;100521.53;10249926;29;20145;-69
2024/01/25 13:48:35;;;;;;;13.38;7.80;;;;;;;-4.89;87.67;100473.00;10251220;28;20106;-69
2024/01/25 13:53:35;;;;;;;17.40;8.45;;;;;;;-4.79;88.17;100501.94;10251743;29;20043;-69
2024/01/25 13:58:36;;;;;;;17.13;8.73;;;;;;;-4.74;88.36;100533.69;10251058;28;20050;-69
2024/01/25 14:03:37;;;;;;;14.25;8.30;;;;;;;-4.73;88.73;100534.53;10252192;28;20047;-69
2024/01/25 14:08:37;;;;;;;14.45;8.50;;;;;;;-4.92;89.14;100487.84;10249464;29;20093;-66
2024/01/25 14:13:38;;;;;;;22.80;9.52;;;;;;;-4.61;89.19;100523.63;10249709;28;20039;-69
2024/01/25 14:18:40;;;;;;;15.65;7.57;;;;;;;-4.73;89.00;100530.19;10251587;28;20039;-69
2024/01/25 14:23:40;;;;;;;15.98;7.80;;;;;;;-5.09;89.27;100486.81;10248251;29;20046;-69
2024/01/25 14:28:41;;;;;;;15.43;8.10;;;;;;;-4.83;89.40;100523.72;10238003;28;20118;-68
2024/01/25 14:33:42;;;;;;;14.25;7.85;;;;;;;-5.16;89.80;100467.25;10237412;28;20094;-69
2024/01/25 14:38:42;;;;;;;14.45;7.95;;;;;;;-5.30;89.90;100456.63;10254117;28;20062;-70
2024/01/25 14:43:43;;;;;;;14.05;7.93;;;;;;;-5.27;90.04;100480.66;10258421;29;20067;-69
2024/01/25 14:48:44;;;;;;;18.13;9.18;;;;;;;-5.08;90.05;100519.59;10258842;28;20050;-69
2024/01/25 14:53:45;;;;;;;17.15;8.80;;;;;;;-5.15;91.01;100519.91;10258747;28;20605;-69
2024/01/25 14:58:46;;;;;;;19.45;9.25;;;;;;;-5.09;90.92;100517.88;10259272;28;20039;-69
2024/01/25 15:03:47;;;;;;;15.98;8.65;;;;;;;-5.11;90.98;100514.53;10258400;29;20416;-69
2024/01/25 15:08:47;;;;;;;16.70;8.85;;;;;;;-5.23;90.79;100509.03;10258296;29;20134;-69
2024/01/25 15:13:48;;;;;;;17.70;9.52;;;;;;;-5.17;91.43;100512.22;10258088;29;20133;-69
2024/01/25 15:18:49;;;;;;;19.65;9.00;;;;;;;-5.11;91.64;100511.94;10258492;28;20039;-69
2024/01/25 15:23:50;;;;;;;17.13;9.10;;;;;;;-5.18;91.45;100500.16;10258243;29;20455;-69
2024/01/25 15:28:51;;;;;;;16.77;8.35;;;;;;;-5.08;91.36;100517.00;10257437;28;20055;-69
2024/01/25 15:33:52;;;;;;;17.60;8.20;;;;;;;-5.15;91.52;100497.41;10257944;28;20046;-69
2024/01/25 15:38:53;;;;;;;14.05;8.75;;;;;;;-5.02;91.53;100510.72;10257868;28;20142;-69
2024/01/25 15:43:53;;;;;;;18.80;9.55;;;;;;;-5.28;91.55;100480.72;10256538;28;20519;-69
2024/01/25 15:48:55;;;;;;;17.23;9.32;;;;;;;-5.06;91.99;100514.34;10254631;28;20035;-69
2024/01/25 15:53:56;;;;;;;17.20;9.38;;;;;;;-4.95;92.19;100519.06;10254772;28;20047;-69
2024/01/25 15:58:57;;;;;;;17.85;9.43;;;;;;;-5.00;92.25;100516.66;10256194;28;20047;-69
2024/01/25 16:03:58;;;;;;;18.10;9.18;;;;;;;-5.37;91.81;100442.28;10255350;29;20138;-70
2024/01/25 16:09:01;;;;;;;20.40;8.98;;;;;;;-5.01;92.14;100498.59;10256374;28;20047;-69
2024/01/25 16:14:02;;;;;;;18.70;9.23;;;;;;;-5.03;92.23;100495.22;10256199;28;20090;-69
2024/01/25 16:19:03;;;;;;;18.35;9.63;;;;;;;-4.95;92.54;100498.34;10256334;28;20086;-69
2024/01/25 16:24:04;;;;;;;23.20;9.65;;;;;;;-4.96;92.59;100478.53;10255708;29;20508;-69
2024/01/25 16:29:05;;;;;;;18.58;9.40;;;;;;;-4.87;92.31;100480.72;10255694;29;20051;-69
2024/01/25 16:34:05;;;;;;;27.95;10.00;;;;;;;-4.82;92.86;100483.94;10250557;29;20063;-69
2024/01/25 16:39:06;;;;;;;22.02;9.63;;;;;;;-4.89;92.40;100466.97;10252408;28;20039;-69
2024/01/25 16:44:07;;;;;;;22.30;11.00;;;;;;;-4.91;92.31;100480.00;10254240;28;20094;-70
2024/01/25 16:49:08;;;;;;;16.45;8.00;;;;;;;-4.94;92.59;100472.34;10253259;28;20086;-69
2024/01/25 16:54:08;;;;;;;19.83;9.00;;;;;;;-5.21;92.92;100432.94;10254565;28;20089;-69
2024/01/25 16:59:09;;;;;;;24.23;9.63;;;;;;;-4.85;93.23;100468.53;10249731;28;20607;-70
2024/01/25 17:04:12;;;;;;;34.92;9.52;;;;;;;-4.91;93.08;100468.78;10255003;28;20504;-70
2024/01/25 17:09:15;;;;;;;19.92;10.20;;;;;;;-4.85;92.94;100477.13;10253101;28;20051;-70
2024/01/25 17:14:16;;;;;;;18.13;9.87;;;;;;;-4.81;92.96;100470.09;10252885;28;20121;-70
2024/01/25 17:19:17;;;;;;;22.70;10.80;;;;;;;-5.20;92.88;100394.97;10252823;28;20047;-70
2024/01/25 17:24:18;;;;;;;22.08;10.02;;;;;;;-4.97;93.27;100454.34;10229844;29;20528;-70
2024/01/25 17:29:19;;;;;;;18.55;10.13;;;;;;;-4.93;92.98;100447.31;10252942;28;20047;-70
2024/01/25 17:34:19;;;;;;;21.25;9.55;;;;;;;-4.88;93.13;100460.88;10253506;28;20042;-70
2024/01/25 17:39:20;;;;;;;18.05;10.15;;;;;;;-4.94;93.43;100454.22;10252465;28;20047;-70
2024/01/25 17:44:21;;;;;;;16.45;9.43;;;;;;;-4.92;93.62;100446.38;10251224;28;20067;-70
2024/01/25 17:49:21;;;;;;;18.88;10.68;;;;;;;-4.93;94.13;100447.31;10252906;28;20389;-70
2024/01/25 17:54:22;;;;;;;16.38;8.90;;;;;;;-5.05;93.77;100465.06;10252110;28;20043;-70
2024/01/25 17:59:25;;;;;;;18.70;10.23;;;;;;;-5.05;93.78;100467.66;10248129;28;20042;-70
2024/01/25 18:04:27;;;;;;;20.58;10.18;;;;;;;-5.14;94.08;100418.84;10231014;28;20047;-70
2024/01/25 18:09:28;;;;;;;18.45;9.73;;;;;;;-4.90;94.15;100431.63;10237613;28;20070;-70
2024/01/25 18:14:28;;;;;;;20.00;10.30;;;;;;;-5.16;94.24;100388.72;10233972;28;20496;-72
2024/01/25 18:19:31;;;;;;;19.25;10.30;;;;;;;-5.10;94.28;100412.59;10230832;28;20106;-71
2024/01/25 18:24:32;;;;;;;17.85;9.65;;;;;;;-5.16;94.24;100391.31;10240788;29;20047;-71
2024/01/25 18:29:33;;;;;;;19.08;10.10;;;;;;;-5.13;94.11;100404.13;10251158;28;20070;-70
2024/01/25 18:34:34;;;;;;;21.85;9.95;;;;;;;-5.00;94.59;100407.03;10251450;28;20039;-70
2024/01/25 18:39:35;;;;;;;20.48;10.32;;;;;;;-5.01;94.69;100413.13;10251608;29;20059;-70
2024/01/25 18:44:40;;;;;;;18.10;9.77;;;;;;;-5.26;94.88;100349.44;10251424;28;20067;-70
2024/01/25 18:49:43;;;;;;;18.50;10.27;;;;;;;-4.96;94.85;100383.50;10250707;28;20579;-70
2024/01/25 18:54:45;;;;;;;15.60;9.10;;;;;;;-4.99;94.63;100380.22;10251105;28;20046;-71
2024/01/25 18:59:46;;;;;;;15.95;8.90;;;;;;;-5.03;94.71;100378.66;10251711;29;20043;-71
2024/01/25 19:04:48;;;;;;;19.17;10.15;;;;;;;-5.12;94.58;100393.69;10251288;29;20126;-70
2024/01/25 19:09:49;;;;;;;18.30;10.60;;;;;;;-5.18;94.48;100382.75;10250475;28;20047;-71
2024/01/25 19:14:50;;;;;;;20.35;9.73;;;;;;;-5.31;94.68;100374.69;10250380;28;20055;-71
2024/01/25 19:19:51;;;;;;;19.45;9.98;;;;;;;-5.33;94.31;100379.09;10250162;28;20078;-71
2024/01/25 19:24:51;;;;;;;20.05;8.60;;;;;;;-5.40;94.60;100362.16;10255992;28;20067;-70
2024/01/25 19:29:52;;;;;;;20.63;8.98;;;;;;;-5.47;94.36;100378.84;10257434;29;20046;-71
2024/01/25 19:34:54;;;;;;;15.85;7.47;;;;;;;-5.72;94.80;100320.38;10257311;29;20043;-71
2024/01/25 19:39:55;;;;;;;15.63;8.60;;;;;;;-5.84;94.60;100315.72;10257711;29;20122;-71
2024/01/25 19:44:56;;;;;;;16.02;8.32;;;;;;;-5.84;94.61;100329.47;10258021;29;20138;-70
2024/01/25 19:49:57;;;;;;;16.35;8.77;;;;;;;-5.58;94.74;100362.03;10257803;29;20097;-71
2024/01/25 19:54:57;;;;;;;16.20;8.85;;;;;;;-5.70;94.44;100341.00;10255772;29;20483;-71
2024/01/25 19:59:58;;;;;;;15.35;8.77;;;;;;;-5.73;94.36;100349.75;10256807;28;20518;-71
2024/01/25 20:04:59;;;;;;;14.73;7.57;;;;;;;-5.97;94.09;100328.34;10256653;29;20412;-71
2024/01/25 20:10:00;;;;;;;13.15;8.27;;;;;;;-5.97;94.02;100352.47;10257646;28;20051;-70
2024/01/25 20:15:01;;;;;;;18.50;9.25;;;;;;;-5.98;94.59;100344.78;10255836;29;20504;-70
2024/01/25 20:20:02;;;;;;;16.02;8.57;;;;;;;-5.96;94.32;100335.19;10256203;29;20567;-70
2024/01/25 20:25:04;;;;;;;19.88;9.25;;;;;;;-6.37;93.70;100295.50;10255639;28;20039;-71
2024/01/25 20:30:06;;;;;;;16.80;9.20;;;;;;;-6.15;94.29;100347.22;10256115;28;20039;-70
2024/01/25 20:35:07;;;;;;;15.25;8.55;;;;;;;-6.31;94.26;100318.53;10254909;28;20073;-70
2024/01/25 20:40:08;;;;;;;15.77;8.13;;;;;;;-6.26;94.27;100324.38;10254263;29;20074;-71
2024/01/25 20:45:09;;;;;;;15.90;8.15;;;;;;;-6.41;94.19;100299.97;10255122;28;20105;-71
2024/01/25 20:50:10;;;;;;;16.02;8.48;;;;;;;-6.36;94.65;100298.06;10254870;29;20050;-71
2024/01/25 20:55:11;;;;;;;16.02;8.90;;;;;;;-6.64;94.84;100250.94;10254018;29;20054;-71
2024/01/25 21:00:12;;;;;;;13.73;8.18;;;;;;;-6.31;94.72;100315.94;10254672;29;20043;-71
2024/01/25 21:05:14;;;;;;;15.15;7.60;;;;;;;-6.50;94.99;100290.84;10254272;28;20039;-71
2024/01/25 21:10:16;;;;;;;15.23;7.10;;;;;;;-6.46;94.89;100292.41;10253923;29;20094;-71
2024/01/25 21:15:17;;;;;;;16.05;8.02;;;;;;;-6.15;94.80;100342.88;10254218;29;20070;-70
2024/01/25 21:20:18;;;;;;;15.30;7.85;;;;;;;-6.64;94.76;100245.78;10253281;29;20043;-71
2024/01/25 21:25:19;;;;;;;14.60;8.25;;;;;;;-6.71;94.67;100221.94;10253810;29;20035;-70
2024/01/25 21:30:19;;;;;;;15.00;7.88;;;;;;;-6.17;95.18;100277.44;10253046;29;20058;-71
2024/01/25 21:35:20;;;;;;;13.95;7.75;;;;;;;-6.10;94.92;100283.19;10253089;29;20043;-71
2024/01/25 21:40:21;;;;;;;14.77;8.05;;;;;;;-6.00;95.35;100295.69;10253068;28;20415;-71
2024/01/25 21:45:22;;;;;;;16.10;8.27;;;;;;;-6.19;95.07;100263.78;10252538;28;20070;-71
2024/01/25 21:50:23;;;;;;;17.30;8.73;;;;;;;-6.00;94.40;100315.56;10252560;28;20062;-71
2024/01/25 21:55:23;;;;;;;18.70;9.50;;;;;;;-6.06;94.44;100300.28;10253157;28;20050;-71
2024/01/25 22:00:24;;;;;;;16.25;8.77;;;;;;;-6.32;94.79;100247.91;10252460;29;20046;-71
2024/01/25 22:05:25;;;;;;;13.57;8.32;;;;;;;-6.09;94.81;100293.50;10252434;28;20455;-71
2024/01/25 22:10:26;;;;;;;18.40;9.02;;;;;;;-6.04;94.75;100280.34;10251858;29;20049;-71
2024/01/25 22:15:27;;;;;;;16.63;8.50;;;;;;;-5.99;95.06;100276.69;10251072;29;20090;-71
2024/01/25 22:20:28;;;;;;;19.45;8.93;;;;;;;-5.99;94.90;100281.84;10251437;29;20047;-71
2024/01/25 22:25:29;;;;;;;23.02;9.18;;;;;;;-6.00;95.05;100277.59;10251993;29;20404;-71
2024/01/25 22:30:29;;;;;;;15.02;8.50;;;;;;;-6.44;95.31;100207.06;10251169;29;20125;-71
2024/01/25 22:35:30;;;;;;;16.70;7.72;;;;;;;-5.99;94.81;100287.03;10251032;29;20130;-71
2024/01/25 22:40:31;;;;;;;16.30;8.05;;;;;;;-6.09;95.15;100261.63;10252352;29;20543;-71